sensor_id;sensor_type;location;lat;lon;timestamp;P1;durP1;ratioP1;P2;durP2;ratioP2
12263;SDS011;6194;49.010;8.414;2023-04-24T00:00:00;3.90;;;1.37;;
12263;SDS011;6194;49.010;8.414;2023-04-24T00:02:30;3.63;;;1.47;;
12263;SDS011;6194;49.010;8.414;2023-04-24T00:04:57;1.77;;;1.33;;
12263;SDS011;6194;49.010;8.414;2023-04-24T00:07:27;1.30;;;1.20;;
12263;SDS011;6194;49.010;8.414;2023-04-24T00:09:53;2.77;;;1.40;;
12263;SDS011;6194;49.010;8.414;2023-04-24T00:12:19;1.60;;;1.50;;
12263;SDS011;6194;49.010;8.414;2023-04-24T00:14:45;2.90;;;1.50;;
12263;SDS011;6194;49.010;8.414;2023-04-24T00:17:11;2.43;;;1.30;;
12263;SDS011;6194;49.010;8.414;2023-04-24T00:19:36;2.40;;;1.33;;
12263;SDS011;6194;49.010;8.414;2023-04-24T00:22:02;1.30;;;1.20;;
12263;SDS011;6194;49.010;8.414;2023-04-24T00:24:28;1.30;;;1.20;;
12263;SDS011;6194;49.010;8.414;2023-04-24T00:26:54;2.43;;;1.20;;
12263;SDS011;6194;49.010;8.414;2023-04-24T00:29:19;1.40;;;1.30;;
12263;SDS011;6194;49.010;8.414;2023-04-24T00:31:45;2.10;;;1.30;;
12263;SDS011;6194;49.010;8.414;2023-04-24T00:34:10;1.57;;;1.20;;
12263;SDS011;6194;49.010;8.414;2023-04-24T00:36:36;2.63;;;1.50;;
12263;SDS011;6194;49.010;8.414;2023-04-24T00:39:02;1.60;;;1.37;;
12263;SDS011;6194;49.010;8.414;2023-04-24T00:41:28;1.00;;;1.00;;
12263;SDS011;6194;49.010;8.414;2023-04-24T00:43:54;1.13;;;1.10;;
12263;SDS011;6194;49.010;8.414;2023-04-24T00:46:20;4.43;;;1.20;;
12263;SDS011;6194;49.010;8.414;2023-04-24T00:48:46;1.10;;;1.03;;
12263;SDS011;6194;49.010;8.414;2023-04-24T00:51:12;1.37;;;1.20;;
12263;SDS011;6194;49.010;8.414;2023-04-24T00:53:38;1.23;;;1.20;;
12263;SDS011;6194;49.010;8.414;2023-04-24T00:56:03;2.57;;;1.20;;
12263;SDS011;6194;49.010;8.414;2023-04-24T00:58:30;3.70;;;1.07;;
12263;SDS011;6194;49.010;8.414;2023-04-24T01:00:56;1.50;;;1.40;;
12263;SDS011;6194;49.010;8.414;2023-04-24T01:03:24;1.63;;;1.10;;
12263;SDS011;6194;49.010;8.414;2023-04-24T01:05:54;0.80;;;0.80;;
12263;SDS011;6194;49.010;8.414;2023-04-24T01:08:20;1.70;;;1.30;;
12263;SDS011;6194;49.010;8.414;2023-04-24T01:10:52;1.43;;;1.10;;
12263;SDS011;6194;49.010;8.414;2023-04-24T01:13:18;0.97;;;0.93;;
12263;SDS011;6194;49.010;8.414;2023-04-24T01:15:45;2.70;;;1.20;;
12263;SDS011;6194;49.010;8.414;2023-04-24T01:18:11;1.87;;;1.20;;
12263;SDS011;6194;49.010;8.414;2023-04-24T01:20:37;1.57;;;1.27;;
12263;SDS011;6194;49.010;8.414;2023-04-24T01:23:05;2.00;;;1.13;;
12263;SDS011;6194;49.010;8.414;2023-04-24T01:25:32;2.33;;;1.03;;
12263;SDS011;6194;49.010;8.414;2023-04-24T01:27:58;1.30;;;1.10;;
12263;SDS011;6194;49.010;8.414;2023-04-24T01:30:24;1.80;;;1.10;;
12263;SDS011;6194;49.010;8.414;2023-04-24T01:32:50;1.80;;;1.10;;
12263;SDS011;6194;49.010;8.414;2023-04-24T01:35:17;2.00;;;1.20;;
12263;SDS011;6194;49.010;8.414;2023-04-24T01:37:42;2.73;;;1.40;;
12263;SDS011;6194;49.010;8.414;2023-04-24T01:40:09;1.23;;;1.13;;
12263;SDS011;6194;49.010;8.414;2023-04-24T01:42:34;1.17;;;1.07;;
12263;SDS011;6194;49.010;8.414;2023-04-24T01:45:00;1.10;;;1.10;;
12263;SDS011;6194;49.010;8.414;2023-04-24T01:47:28;1.70;;;1.60;;
12263;SDS011;6194;49.010;8.414;2023-04-24T01:49:55;2.93;;;1.10;;
12263;SDS011;6194;49.010;8.414;2023-04-24T01:52:21;2.87;;;1.40;;
12263;SDS011;6194;49.010;8.414;2023-04-24T01:54:47;1.57;;;1.47;;
12263;SDS011;6194;49.010;8.414;2023-04-24T01:57:13;1.53;;;1.27;;
12263;SDS011;6194;49.010;8.414;2023-04-24T01:59:39;2.10;;;1.27;;
12263;SDS011;6194;49.010;8.414;2023-04-24T02:02:05;1.10;;;1.10;;
12263;SDS011;6194;49.010;8.414;2023-04-24T02:04:31;1.50;;;1.40;;
12263;SDS011;6194;49.010;8.414;2023-04-24T02:06:56;3.63;;;1.50;;
12263;SDS011;6194;49.010;8.414;2023-04-24T02:09:22;1.37;;;1.27;;
12263;SDS011;6194;49.010;8.414;2023-04-24T02:11:48;2.47;;;1.43;;
12263;SDS011;6194;49.010;8.414;2023-04-24T02:14:13;1.13;;;1.10;;
12263;SDS011;6194;49.010;8.414;2023-04-24T02:16:39;2.27;;;1.73;;
12263;SDS011;6194;49.010;8.414;2023-04-24T02:19:05;1.80;;;1.40;;
12263;SDS011;6194;49.010;8.414;2023-04-24T02:21:30;1.50;;;1.40;;
12263;SDS011;6194;49.010;8.414;2023-04-24T02:23:56;2.20;;;1.37;;
12263;SDS011;6194;49.010;8.414;2023-04-24T02:26:22;1.60;;;1.50;;
12263;SDS011;6194;49.010;8.414;2023-04-24T02:28:48;1.63;;;1.40;;
12263;SDS011;6194;49.010;8.414;2023-04-24T02:31:13;2.00;;;1.50;;
12263;SDS011;6194;49.010;8.414;2023-04-24T02:33:39;1.77;;;1.47;;
12263;SDS011;6194;49.010;8.414;2023-04-24T02:36:05;1.27;;;1.17;;
12263;SDS011;6194;49.010;8.414;2023-04-24T02:38:31;2.43;;;1.30;;
12263;SDS011;6194;49.010;8.414;2023-04-24T02:40:56;1.60;;;1.50;;
12263;SDS011;6194;49.010;8.414;2023-04-24T02:43:22;1.87;;;1.30;;
12263;SDS011;6194;49.010;8.414;2023-04-24T02:45:47;2.73;;;1.37;;
12263;SDS011;6194;49.010;8.414;2023-04-24T02:48:13;1.77;;;1.30;;
12263;SDS011;6194;49.010;8.414;2023-04-24T02:50:39;2.97;;;1.50;;
12263;SDS011;6194;49.010;8.414;2023-04-24T02:53:05;1.90;;;1.40;;
12263;SDS011;6194;49.010;8.414;2023-04-24T02:55:30;2.00;;;1.23;;
12263;SDS011;6194;49.010;8.414;2023-04-24T02:57:56;2.60;;;1.67;;
12263;SDS011;6194;49.010;8.414;2023-04-24T03:00:22;1.83;;;1.40;;
12263;SDS011;6194;49.010;8.414;2023-04-24T03:02:47;1.73;;;1.60;;
12263;SDS011;6194;49.010;8.414;2023-04-24T03:05:14;1.73;;;1.40;;
12263;SDS011;6194;49.010;8.414;2023-04-24T03:07:40;2.17;;;1.30;;
12263;SDS011;6194;49.010;8.414;2023-04-24T03:10:05;1.40;;;1.30;;
12263;SDS011;6194;49.010;8.414;2023-04-24T03:12:32;1.43;;;1.33;;
12263;SDS011;6194;49.010;8.414;2023-04-24T03:14:57;1.83;;;1.50;;
12263;SDS011;6194;49.010;8.414;2023-04-24T03:17:23;1.90;;;1.67;;
12263;SDS011;6194;49.010;8.414;2023-04-24T03:19:48;1.93;;;1.43;;
12263;SDS011;6194;49.010;8.414;2023-04-24T03:22:14;2.83;;;1.80;;
12263;SDS011;6194;49.010;8.414;2023-04-24T03:24:39;2.13;;;1.53;;
12263;SDS011;6194;49.010;8.414;2023-04-24T03:27:05;2.00;;;1.83;;
12263;SDS011;6194;49.010;8.414;2023-04-24T03:29:31;1.87;;;1.60;;
12263;SDS011;6194;49.010;8.414;2023-04-24T03:31:56;1.83;;;1.73;;
12263;SDS011;6194;49.010;8.414;2023-04-24T03:34:22;1.80;;;1.70;;
12263;SDS011;6194;49.010;8.414;2023-04-24T03:36:47;2.47;;;2.03;;
12263;SDS011;6194;49.010;8.414;2023-04-24T03:39:13;1.87;;;1.73;;
12263;SDS011;6194;49.010;8.414;2023-04-24T03:41:38;2.13;;;2.00;;
12263;SDS011;6194;49.010;8.414;2023-04-24T03:44:04;2.40;;;2.20;;
12263;SDS011;6194;49.010;8.414;2023-04-24T03:46:30;3.20;;;2.00;;
12263;SDS011;6194;49.010;8.414;2023-04-24T03:48:55;2.20;;;2.00;;
12263;SDS011;6194;49.010;8.414;2023-04-24T03:51:21;2.07;;;1.90;;
12263;SDS011;6194;49.010;8.414;2023-04-24T03:53:47;2.60;;;2.10;;
12263;SDS011;6194;49.010;8.414;2023-04-24T03:56:13;2.43;;;2.13;;
12263;SDS011;6194;49.010;8.414;2023-04-24T03:58:39;2.40;;;2.20;;
12263;SDS011;6194;49.010;8.414;2023-04-24T04:01:05;2.53;;;2.27;;
12263;SDS011;6194;49.010;8.414;2023-04-24T04:03:31;2.50;;;2.30;;
12263;SDS011;6194;49.010;8.414;2023-04-24T04:05:57;2.30;;;2.10;;
12263;SDS011;6194;49.010;8.414;2023-04-24T04:08:22;2.50;;;2.33;;
12263;SDS011;6194;49.010;8.414;2023-04-24T04:10:48;2.33;;;2.13;;
12263;SDS011;6194;49.010;8.414;2023-04-24T04:13:14;2.40;;;2.20;;
12263;SDS011;6194;49.010;8.414;2023-04-24T04:15:39;2.40;;;2.20;;
12263;SDS011;6194;49.010;8.414;2023-04-24T04:18:05;2.20;;;2.10;;
12263;SDS011;6194;49.010;8.414;2023-04-24T04:20:31;2.63;;;2.17;;
12263;SDS011;6194;49.010;8.414;2023-04-24T04:22:56;2.90;;;2.30;;
12263;SDS011;6194;49.010;8.414;2023-04-24T04:25:22;3.03;;;2.13;;
12263;SDS011;6194;49.010;8.414;2023-04-24T04:27:48;3.83;;;2.50;;
12263;SDS011;6194;49.010;8.414;2023-04-24T04:30:14;3.40;;;2.10;;
12263;SDS011;6194;49.010;8.414;2023-04-24T04:32:40;2.30;;;2.10;;
12263;SDS011;6194;49.010;8.414;2023-04-24T04:35:06;2.90;;;2.50;;
12263;SDS011;6194;49.010;8.414;2023-04-24T04:37:32;2.63;;;2.43;;
12263;SDS011;6194;49.010;8.414;2023-04-24T04:39:58;3.47;;;2.70;;
12263;SDS011;6194;49.010;8.414;2023-04-24T04:42:36;2.53;;;2.40;;
12263;SDS011;6194;49.010;8.414;2023-04-24T04:45:05;2.67;;;2.57;;
12263;SDS011;6194;49.010;8.414;2023-04-24T04:47:34;3.60;;;3.33;;
12263;SDS011;6194;49.010;8.414;2023-04-24T04:50:00;2.90;;;2.70;;
12263;SDS011;6194;49.010;8.414;2023-04-24T04:52:26;3.27;;;2.90;;
12263;SDS011;6194;49.010;8.414;2023-04-24T04:54:52;3.43;;;2.80;;
12263;SDS011;6194;49.010;8.414;2023-04-24T04:57:18;3.30;;;3.10;;
12263;SDS011;6194;49.010;8.414;2023-04-24T04:59:43;3.20;;;2.90;;
12263;SDS011;6194;49.010;8.414;2023-04-24T05:02:09;3.27;;;3.07;;
12263;SDS011;6194;49.010;8.414;2023-04-24T05:04:35;3.23;;;2.93;;
12263;SDS011;6194;49.010;8.414;2023-04-24T05:07:00;3.30;;;2.90;;
12263;SDS011;6194;49.010;8.414;2023-04-24T05:09:26;2.40;;;2.20;;
12263;SDS011;6194;49.010;8.414;2023-04-24T05:11:53;2.30;;;2.20;;
12263;SDS011;6194;49.010;8.414;2023-04-24T05:14:19;2.57;;;2.07;;
12263;SDS011;6194;49.010;8.414;2023-04-24T05:16:45;1.90;;;1.80;;
12263;SDS011;6194;49.010;8.414;2023-04-24T05:19:11;2.00;;;1.90;;
12263;SDS011;6194;49.010;8.414;2023-04-24T05:21:38;1.85;;;1.73;;
12263;SDS011;6194;49.010;8.414;2023-04-24T05:24:04;1.75;;;1.65;;
12263;SDS011;6194;49.010;8.414;2023-04-24T05:26:30;2.53;;;2.33;;
12263;SDS011;6194;49.010;8.414;2023-04-24T05:28:56;2.92;;;2.10;;
12263;SDS011;6194;49.010;8.414;2023-04-24T05:31:21;2.60;;;1.90;;
12263;SDS011;6194;49.010;8.414;2023-04-24T05:33:47;1.83;;;1.73;;
12263;SDS011;6194;49.010;8.414;2023-04-24T05:36:13;2.03;;;1.85;;
12263;SDS011;6194;49.010;8.414;2023-04-24T05:38:38;2.53;;;1.92;;
12263;SDS011;6194;49.010;8.414;2023-04-24T05:41:04;1.80;;;1.70;;
12263;SDS011;6194;49.010;8.414;2023-04-24T05:43:30;2.83;;;2.00;;
12263;SDS011;6194;49.010;8.414;2023-04-24T05:45:55;2.00;;;1.77;;
12263;SDS011;6194;49.010;8.414;2023-04-24T05:48:21;2.30;;;2.10;;
12263;SDS011;6194;49.010;8.414;2023-04-24T05:50:47;2.10;;;2.00;;
12263;SDS011;6194;49.010;8.414;2023-04-24T05:53:13;3.00;;;1.93;;
12263;SDS011;6194;49.010;8.414;2023-04-24T05:55:39;2.77;;;2.20;;
12263;SDS011;6194;49.010;8.414;2023-04-24T05:58:04;2.20;;;2.10;;
12263;SDS011;6194;49.010;8.414;2023-04-24T06:00:31;3.23;;;2.40;;
12263;SDS011;6194;49.010;8.414;2023-04-24T06:02:57;5.50;;;2.33;;
12263;SDS011;6194;49.010;8.414;2023-04-24T06:05:23;2.20;;;2.10;;
12263;SDS011;6194;49.010;8.414;2023-04-24T06:07:50;2.47;;;2.00;;
12263;SDS011;6194;49.010;8.414;2023-04-24T06:10:15;2.10;;;1.90;;
12263;SDS011;6194;49.010;8.414;2023-04-24T06:12:41;5.07;;;2.60;;
12263;SDS011;6194;49.010;8.414;2023-04-24T06:15:07;4.27;;;2.27;;
12263;SDS011;6194;49.010;8.414;2023-04-24T06:17:33;2.00;;;1.90;;
12263;SDS011;6194;49.010;8.414;2023-04-24T06:19:58;2.10;;;1.87;;
12263;SDS011;6194;49.010;8.414;2023-04-24T06:22:24;2.30;;;2.10;;
12263;SDS011;6194;49.010;8.414;2023-04-24T06:24:50;2.73;;;1.93;;
12263;SDS011;6194;49.010;8.414;2023-04-24T06:27:15;2.10;;;1.90;;
12263;SDS011;6194;49.010;8.414;2023-04-24T06:29:41;2.20;;;2.07;;
12263;SDS011;6194;49.010;8.414;2023-04-24T06:32:06;3.10;;;2.20;;
12263;SDS011;6194;49.010;8.414;2023-04-24T06:34:32;2.30;;;2.10;;
12263;SDS011;6194;49.010;8.414;2023-04-24T06:36:59;5.10;;;2.20;;
12263;SDS011;6194;49.010;8.414;2023-04-24T06:39:25;2.47;;;2.27;;
12263;SDS011;6194;49.010;8.414;2023-04-24T06:41:50;2.50;;;2.27;;
12263;SDS011;6194;49.010;8.414;2023-04-24T06:44:16;2.73;;;2.20;;
12263;SDS011;6194;49.010;8.414;2023-04-24T06:46:41;4.23;;;2.40;;
12263;SDS011;6194;49.010;8.414;2023-04-24T06:49:07;3.03;;;2.30;;
12263;SDS011;6194;49.010;8.414;2023-04-24T06:51:33;3.80;;;2.43;;
12263;SDS011;6194;49.010;8.414;2023-04-24T06:53:58;3.60;;;2.30;;
12263;SDS011;6194;49.010;8.414;2023-04-24T06:56:25;2.07;;;1.97;;
12263;SDS011;6194;49.010;8.414;2023-04-24T06:58:50;2.53;;;2.23;;
12263;SDS011;6194;49.010;8.414;2023-04-24T07:01:16;2.20;;;2.10;;
12263;SDS011;6194;49.010;8.414;2023-04-24T07:03:42;2.90;;;2.07;;
12263;SDS011;6194;49.010;8.414;2023-04-24T07:06:08;2.47;;;2.10;;
12263;SDS011;6194;49.010;8.414;2023-04-24T07:08:36;3.53;;;2.13;;
12263;SDS011;6194;49.010;8.414;2023-04-24T07:11:01;2.17;;;2.00;;
12263;SDS011;6194;49.010;8.414;2023-04-24T07:13:27;3.50;;;2.07;;
12263;SDS011;6194;49.010;8.414;2023-04-24T07:15:53;5.27;;;1.80;;
12263;SDS011;6194;49.010;8.414;2023-04-24T07:18:20;3.17;;;2.20;;
12263;SDS011;6194;49.010;8.414;2023-04-24T07:20:46;2.17;;;1.97;;
12263;SDS011;6194;49.010;8.414;2023-04-24T07:23:12;3.07;;;2.20;;
12263;SDS011;6194;49.010;8.414;2023-04-24T07:25:38;2.50;;;2.17;;
12263;SDS011;6194;49.010;8.414;2023-04-24T07:28:04;3.60;;;2.40;;
12263;SDS011;6194;49.010;8.414;2023-04-24T07:30:30;3.43;;;2.17;;
12263;SDS011;6194;49.010;8.414;2023-04-24T07:32:57;2.40;;;2.20;;
12263;SDS011;6194;49.010;8.414;2023-04-24T07:35:23;2.00;;;1.90;;
12263;SDS011;6194;49.010;8.414;2023-04-24T07:37:50;2.60;;;1.90;;
12263;SDS011;6194;49.010;8.414;2023-04-24T07:40:17;2.90;;;2.00;;
12263;SDS011;6194;49.010;8.414;2023-04-24T07:42:43;2.13;;;1.80;;
12263;SDS011;6194;49.010;8.414;2023-04-24T07:45:09;2.97;;;1.67;;
12263;SDS011;6194;49.010;8.414;2023-04-24T07:47:35;3.70;;;1.80;;
12263;SDS011;6194;49.010;8.414;2023-04-24T07:50:02;1.70;;;1.57;;
12263;SDS011;6194;49.010;8.414;2023-04-24T07:52:28;1.97;;;1.80;;
12263;SDS011;6194;49.010;8.414;2023-04-24T07:54:54;2.53;;;1.80;;
12263;SDS011;6194;49.010;8.414;2023-04-24T07:57:23;2.73;;;1.70;;
12263;SDS011;6194;49.010;8.414;2023-04-24T07:59:49;1.70;;;1.60;;
12263;SDS011;6194;49.010;8.414;2023-04-24T08:02:15;2.27;;;1.80;;
12263;SDS011;6194;49.010;8.414;2023-04-24T08:04:41;1.53;;;1.43;;
12263;SDS011;6194;49.010;8.414;2023-04-24T08:07:07;2.03;;;1.67;;
12263;SDS011;6194;49.010;8.414;2023-04-24T08:09:33;1.73;;;1.63;;
12263;SDS011;6194;49.010;8.414;2023-04-24T08:11:58;2.60;;;1.80;;
12263;SDS011;6194;49.010;8.414;2023-04-24T08:14:24;3.77;;;1.60;;
12263;SDS011;6194;49.010;8.414;2023-04-24T08:16:50;2.73;;;1.80;;
12263;SDS011;6194;49.010;8.414;2023-04-24T08:19:17;2.37;;;1.70;;
12263;SDS011;6194;49.010;8.414;2023-04-24T08:21:43;3.37;;;2.07;;
12263;SDS011;6194;49.010;8.414;2023-04-24T08:24:08;2.97;;;1.60;;
12263;SDS011;6194;49.010;8.414;2023-04-24T08:26:34;2.03;;;1.67;;
12263;SDS011;6194;49.010;8.414;2023-04-24T08:28:59;2.80;;;1.80;;
12263;SDS011;6194;49.010;8.414;2023-04-24T08:31:25;1.92;;;1.45;;
12263;SDS011;6194;49.010;8.414;2023-04-24T08:33:51;1.83;;;1.48;;
12263;SDS011;6194;49.010;8.414;2023-04-24T08:36:16;2.00;;;1.50;;
12263;SDS011;6194;49.010;8.414;2023-04-24T08:38:42;1.57;;;1.37;;
12263;SDS011;6194;49.010;8.414;2023-04-24T08:41:07;1.53;;;1.43;;
12263;SDS011;6194;49.010;8.414;2023-04-24T08:43:35;1.50;;;1.40;;
12263;SDS011;6194;49.010;8.414;2023-04-24T08:46:03;2.47;;;1.50;;
12263;SDS011;6194;49.010;8.414;2023-04-24T08:48:29;1.70;;;1.60;;
12263;SDS011;6194;49.010;8.414;2023-04-24T08:50:56;1.80;;;1.67;;
12263;SDS011;6194;49.010;8.414;2023-04-24T08:53:23;2.00;;;1.67;;
12263;SDS011;6194;49.010;8.414;2023-04-24T08:55:50;3.10;;;1.70;;
12263;SDS011;6194;49.010;8.414;2023-04-24T08:58:18;2.20;;;1.90;;
12263;SDS011;6194;49.010;8.414;2023-04-24T09:00:47;2.67;;;1.85;;
12263;SDS011;6194;49.010;8.414;2023-04-24T09:03:13;2.95;;;2.00;;
12263;SDS011;6194;49.010;8.414;2023-04-24T09:05:41;4.95;;;1.80;;
12263;SDS011;6194;49.010;8.414;2023-04-24T09:08:11;2.20;;;2.00;;
12263;SDS011;6194;49.010;8.414;2023-04-24T09:10:38;2.72;;;2.10;;
12263;SDS011;6194;49.010;8.414;2023-04-24T09:13:05;1.77;;;1.67;;
12263;SDS011;6194;49.010;8.414;2023-04-24T09:15:34;4.30;;;2.00;;
12263;SDS011;6194;49.010;8.414;2023-04-24T09:18:00;2.00;;;1.85;;
12263;SDS011;6194;49.010;8.414;2023-04-24T09:20:26;2.85;;;2.08;;
12263;SDS011;6194;49.010;8.414;2023-04-24T09:22:56;2.28;;;1.88;;
12263;SDS011;6194;49.010;8.414;2023-04-24T09:25:25;2.10;;;1.90;;
12263;SDS011;6194;49.010;8.414;2023-04-24T09:28:01;3.28;;;2.30;;
12263;SDS011;6194;49.010;8.414;2023-04-24T09:30:28;5.17;;;2.30;;
12263;SDS011;6194;49.010;8.414;2023-04-24T09:33:13;2.40;;;2.20;;
12263;SDS011;6194;49.010;8.414;2023-04-24T09:35:40;2.17;;;2.00;;
12263;SDS011;6194;49.010;8.414;2023-04-24T09:38:08;3.17;;;2.70;;
12263;SDS011;6194;49.010;8.414;2023-04-24T09:40:34;2.72;;;2.53;;
12263;SDS011;6194;49.010;8.414;2023-04-24T09:43:00;2.42;;;2.22;;
12263;SDS011;6194;49.010;8.414;2023-04-24T09:45:28;2.85;;;2.38;;
12263;SDS011;6194;49.010;8.414;2023-04-24T09:48:00;3.10;;;2.83;;
12263;SDS011;6194;49.010;8.414;2023-04-24T09:50:26;3.28;;;2.95;;
12263;SDS011;6194;49.010;8.414;2023-04-24T09:52:58;3.92;;;2.72;;
12263;SDS011;6194;49.010;8.414;2023-04-24T09:55:27;4.40;;;2.80;;
12263;SDS011;6194;49.010;8.414;2023-04-24T09:57:59;2.95;;;2.45;;
12263;SDS011;6194;49.010;8.414;2023-04-24T10:00:26;2.78;;;2.58;;
12263;SDS011;6194;49.010;8.414;2023-04-24T10:02:55;3.67;;;2.50;;
12263;SDS011;6194;49.010;8.414;2023-04-24T10:05:24;2.40;;;2.20;;
12263;SDS011;6194;49.010;8.414;2023-04-24T10:08:02;2.50;;;2.30;;
12263;SDS011;6194;49.010;8.414;2023-04-24T10:10:33;8.38;;;2.78;;
12263;SDS011;6194;49.010;8.414;2023-04-24T10:13:00;6.20;;;2.20;;
12263;SDS011;6194;49.010;8.414;2023-04-24T10:15:26;4.25;;;2.50;;
12263;SDS011;6194;49.010;8.414;2023-04-24T10:17:52;3.40;;;2.42;;
12263;SDS011;6194;49.010;8.414;2023-04-24T10:20:19;2.10;;;1.90;;
12263;SDS011;6194;49.010;8.414;2023-04-24T10:22:49;2.42;;;1.90;;
12263;SDS011;6194;49.010;8.414;2023-04-24T10:25:26;3.40;;;2.03;;
12263;SDS011;6194;49.010;8.414;2023-04-24T10:27:53;3.25;;;2.08;;
12263;SDS011;6194;49.010;8.414;2023-04-24T10:30:24;2.92;;;2.28;;
12263;SDS011;6194;49.010;8.414;2023-04-24T10:32:51;4.03;;;2.22;;
12263;SDS011;6194;49.010;8.414;2023-04-24T10:35:17;2.20;;;2.08;;
12263;SDS011;6194;49.010;8.414;2023-04-24T10:38:18;6.93;;;2.60;;
12263;SDS011;6194;49.010;8.414;2023-04-24T10:40:37;3.67;;;2.33;;
12263;SDS011;6194;49.010;8.414;2023-04-24T10:43:07;4.63;;;3.80;;
12263;SDS011;6194;49.010;8.414;2023-04-24T10:45:36;3.37;;;2.93;;
12263;SDS011;6194;49.010;8.414;2023-04-24T10:48:06;2.57;;;2.37;;
12263;SDS011;6194;49.010;8.414;2023-04-24T10:50:43;2.73;;;2.50;;
12263;SDS011;6194;49.010;8.414;2023-04-24T10:53:14;6.53;;;2.57;;
12263;SDS011;6194;49.010;8.414;2023-04-24T10:55:43;4.97;;;2.50;;
12263;SDS011;6194;49.010;8.414;2023-04-24T10:58:14;2.67;;;2.30;;
12263;SDS011;6194;49.010;8.414;2023-04-24T11:00:41;3.05;;;2.78;;
12263;SDS011;6194;49.010;8.414;2023-04-24T11:03:42;5.05;;;3.08;;
12263;SDS011;6194;49.010;8.414;2023-04-24T11:08:29;5.20;;;2.80;;
12263;SDS011;6194;49.010;8.414;2023-04-24T11:11:09;3.53;;;3.00;;
12263;SDS011;6194;49.010;8.414;2023-04-24T11:16:21;3.80;;;3.30;;
12263;SDS011;6194;49.010;8.414;2023-04-24T11:21:30;4.27;;;3.77;;
12263;SDS011;6194;49.010;8.414;2023-04-24T11:24:25;3.37;;;3.10;;
12263;SDS011;6194;49.010;8.414;2023-04-24T11:26:58;5.77;;;3.50;;
12263;SDS011;6194;49.010;8.414;2023-04-24T11:34:53;4.00;;;3.70;;
12263;SDS011;6194;49.010;8.414;2023-04-24T11:37:18;4.00;;;3.43;;
12263;SDS011;6194;49.010;8.414;2023-04-24T11:39:44;3.93;;;3.47;;
12263;SDS011;6194;49.010;8.414;2023-04-24T11:42:10;3.60;;;3.30;;
12263;SDS011;6194;49.010;8.414;2023-04-24T11:44:35;3.47;;;3.20;;
12263;SDS011;6194;49.010;8.414;2023-04-24T11:47:05;4.10;;;3.67;;
12263;SDS011;6194;49.010;8.414;2023-04-24T11:49:32;4.30;;;3.85;;
12263;SDS011;6194;49.010;8.414;2023-04-24T11:51:57;4.20;;;3.80;;
12263;SDS011;6194;49.010;8.414;2023-04-24T11:54:24;4.50;;;3.80;;
12263;SDS011;6194;49.010;8.414;2023-04-24T11:56:50;4.67;;;3.70;;
12263;SDS011;6194;49.010;8.414;2023-04-24T11:59:16;4.10;;;3.73;;
12263;SDS011;6194;49.010;8.414;2023-04-24T12:01:45;3.92;;;3.53;;
12263;SDS011;6194;49.010;8.414;2023-04-24T12:04:11;3.80;;;3.50;;
12263;SDS011;6194;49.010;8.414;2023-04-24T12:06:37;4.05;;;3.65;;
12263;SDS011;6194;49.010;8.414;2023-04-24T12:09:02;3.88;;;3.30;;
12263;SDS011;6194;49.010;8.414;2023-04-24T12:11:29;4.15;;;3.50;;
12263;SDS011;6194;49.010;8.414;2023-04-24T12:13:54;3.40;;;3.10;;
12263;SDS011;6194;49.010;8.414;2023-04-24T12:16:20;3.63;;;2.92;;
12263;SDS011;6194;49.010;8.414;2023-04-24T12:18:46;3.85;;;3.10;;
12263;SDS011;6194;49.010;8.414;2023-04-24T12:21:15;3.17;;;2.88;;
12263;SDS011;6194;49.010;8.414;2023-04-24T12:23:42;3.30;;;3.00;;
12263;SDS011;6194;49.010;8.414;2023-04-24T12:26:12;3.03;;;2.83;;
12263;SDS011;6194;49.010;8.414;2023-04-24T12:28:41;3.30;;;2.95;;
12263;SDS011;6194;49.010;8.414;2023-04-24T12:31:07;3.00;;;2.78;;
12263;SDS011;6194;49.010;8.414;2023-04-24T12:33:33;3.08;;;2.88;;
12263;SDS011;6194;49.010;8.414;2023-04-24T12:36:00;3.40;;;3.10;;
12263;SDS011;6194;49.010;8.414;2023-04-24T12:38:26;3.67;;;3.38;;
12263;SDS011;6194;49.010;8.414;2023-04-24T12:41:01;3.45;;;3.15;;
12263;SDS011;6194;49.010;8.414;2023-04-24T12:43:31;5.78;;;3.10;;
12263;SDS011;6194;49.010;8.414;2023-04-24T12:45:57;3.35;;;3.05;;
12263;SDS011;6194;49.010;8.414;2023-04-24T12:48:24;3.83;;;3.05;;
12263;SDS011;6194;49.010;8.414;2023-04-24T12:50:53;3.28;;;3.08;;
12263;SDS011;6194;49.010;8.414;2023-04-24T12:53:19;5.32;;;2.90;;
12263;SDS011;6194;49.010;8.414;2023-04-24T12:55:44;3.67;;;3.10;;
12263;SDS011;6194;49.010;8.414;2023-04-24T12:58:11;3.15;;;2.72;;
12263;SDS011;6194;49.010;8.414;2023-04-24T13:00:38;3.50;;;3.08;;
12263;SDS011;6194;49.010;8.414;2023-04-24T13:03:04;4.53;;;2.90;;
12263;SDS011;6194;49.010;8.414;2023-04-24T13:05:30;4.63;;;3.00;;
12263;SDS011;6194;49.010;8.414;2023-04-24T13:07:56;3.75;;;3.17;;
12263;SDS011;6194;49.010;8.414;2023-04-24T13:10:22;3.72;;;3.17;;
12263;SDS011;6194;49.010;8.414;2023-04-24T13:12:48;4.40;;;3.00;;
12263;SDS011;6194;49.010;8.414;2023-04-24T13:15:14;4.63;;;3.13;;
12263;SDS011;6194;49.010;8.414;2023-04-24T13:17:40;3.65;;;3.20;;
12263;SDS011;6194;49.010;8.414;2023-04-24T13:20:05;3.28;;;3.00;;
12263;SDS011;6194;49.010;8.414;2023-04-24T13:22:31;4.85;;;3.00;;
12263;SDS011;6194;49.010;8.414;2023-04-24T13:24:57;4.15;;;2.95;;
12263;SDS011;6194;49.010;8.414;2023-04-24T13:27:23;3.60;;;3.22;;
12263;SDS011;6194;49.010;8.414;2023-04-24T13:29:48;3.10;;;2.70;;
12263;SDS011;6194;49.010;8.414;2023-04-24T13:32:14;3.10;;;2.88;;
12263;SDS011;6194;49.010;8.414;2023-04-24T13:34:40;3.28;;;3.08;;
12263;SDS011;6194;49.010;8.414;2023-04-24T13:37:05;3.65;;;3.35;;
12263;SDS011;6194;49.010;8.414;2023-04-24T13:39:32;3.20;;;2.90;;
12263;SDS011;6194;49.010;8.414;2023-04-24T13:41:58;3.50;;;3.20;;
12263;SDS011;6194;49.010;8.414;2023-04-24T13:44:24;3.28;;;2.90;;
12263;SDS011;6194;49.010;8.414;2023-04-24T13:46:50;3.83;;;3.08;;
12263;SDS011;6194;49.010;8.414;2023-04-24T13:49:18;4.07;;;2.72;;
12263;SDS011;6194;49.010;8.414;2023-04-24T13:51:45;3.25;;;2.95;;
12263;SDS011;6194;49.010;8.414;2023-04-24T13:54:11;5.72;;;2.70;;
12263;SDS011;6194;49.010;8.414;2023-04-24T13:56:36;3.17;;;2.97;;
12263;SDS011;6194;49.010;8.414;2023-04-24T13:59:02;2.80;;;2.60;;
12263;SDS011;6194;49.010;8.414;2023-04-24T14:01:28;2.63;;;2.47;;
12263;SDS011;6194;49.010;8.414;2023-04-24T14:03:54;2.53;;;2.33;;
12263;SDS011;6194;49.010;8.414;2023-04-24T14:06:21;2.47;;;2.28;;
12263;SDS011;6194;49.010;8.414;2023-04-24T14:08:48;3.38;;;2.25;;
12263;SDS011;6194;49.010;8.414;2023-04-24T14:11:15;2.83;;;2.50;;
12263;SDS011;6194;49.010;8.414;2023-04-24T14:13:41;2.50;;;2.30;;
12263;SDS011;6194;49.010;8.414;2023-04-24T14:16:07;2.55;;;2.28;;
12263;SDS011;6194;49.010;8.414;2023-04-24T14:18:33;2.63;;;2.40;;
12263;SDS011;6194;49.010;8.414;2023-04-24T14:20:59;3.33;;;3.00;;
12263;SDS011;6194;49.010;8.414;2023-04-24T14:23:26;4.85;;;3.00;;
12263;SDS011;6194;49.010;8.414;2023-04-24T14:25:51;6.82;;;3.75;;
12263;SDS011;6194;49.010;8.414;2023-04-24T14:28:18;3.67;;;3.37;;
12263;SDS011;6194;49.010;8.414;2023-04-24T14:30:45;3.83;;;3.53;;
12263;SDS011;6194;49.010;8.414;2023-04-24T14:33:11;4.03;;;3.47;;
12263;SDS011;6194;49.010;8.414;2023-04-24T14:35:37;4.20;;;3.30;;
12263;SDS011;6194;49.010;8.414;2023-04-24T14:38:03;3.47;;;3.20;;
12263;SDS011;6194;49.010;8.414;2023-04-24T14:40:29;3.30;;;3.00;;
12263;SDS011;6194;49.010;8.414;2023-04-24T14:42:56;3.40;;;2.83;;
12263;SDS011;6194;49.010;8.414;2023-04-24T14:45:22;4.70;;;2.83;;
12263;SDS011;6194;49.010;8.414;2023-04-24T14:47:48;2.47;;;2.37;;
12263;SDS011;6194;49.010;8.414;2023-04-24T14:50:14;3.00;;;2.30;;
12263;SDS011;6194;49.010;8.414;2023-04-24T14:52:40;2.30;;;2.20;;
12263;SDS011;6194;49.010;8.414;2023-04-24T14:55:06;2.47;;;2.28;;
12263;SDS011;6194;49.010;8.414;2023-04-24T14:57:32;3.07;;;2.47;;
12263;SDS011;6194;49.010;8.414;2023-04-24T15:00:01;2.53;;;2.30;;
12263;SDS011;6194;49.010;8.414;2023-04-24T15:02:35;2.38;;;2.22;;
12263;SDS011;6194;49.010;8.414;2023-04-24T15:05:02;2.40;;;2.20;;
12263;SDS011;6194;49.010;8.414;2023-04-24T15:07:28;2.97;;;2.40;;
12263;SDS011;6194;49.010;8.414;2023-04-24T15:09:54;2.40;;;2.20;;